Time;durP1;ratioP1;P1;durP2;ratioP2;P2;SDS_P1;SDS_P2;PMS_P1;PMS_P2;Temp;Humidity;BMP_temperature;BMP_pressure;BME280_temperature;BME280_humidity;BME280_pressure;Samples;Min_cycle;Max_cycle;Signal;HPM_P1;HPM_P2
2022/11/09 00:01:35;;;;;;;1.30;0.27;;;;;;;;;;5072433;28;20111;-64
2022/11/09 00:04:02;;;;;;;0.00;0.00;;;;;;;;;;5071739;28;20024;-63
2022/11/09 00:06:29;;;;;;;0.20;0.20;;;;;;;;;;5072380;28;20020;-63
2022/11/09 00:08:56;;;;;;;3.77;0.80;;;;;;;;;;5072329;28;20520;-63
2022/11/09 00:11:23;;;;;;;2.50;1.43;;;;;;;;;;5072266;28;20028;-64
2022/11/09 00:13:50;;;;;;;11.67;1.40;;;;;;;;;;5066801;28;20063;-64
2022/11/09 00:16:18;;;;;;;3.47;2.10;;;;;;;;;;5053834;28;20091;-63
2022/11/09 00:18:47;;;;;;;11.87;3.20;;;;;;;;;;5046915;28;20111;-64
2022/11/09 00:21:15;;;;;;;8.13;4.27;;;;;;;;;;5046751;28;20032;-63
2022/11/09 00:23:42;;;;;;;7.40;3.90;;;;;;;;;;5051328;28;20032;-63
2022/11/09 00:26:11;;;;;;;3.17;1.63;;;;;;;;;;5069231;28;20109;-63
2022/11/09 00:28:38;;;;;;;0.97;0.60;;;;;;;;;;5072029;28;20090;-63
2022/11/09 00:31:06;;;;;;;1.03;0.57;;;;;;;;;;5072257;28;20028;-63
2022/11/09 00:33:33;;;;;;;1.83;1.00;;;;;;;;;;5072455;28;20020;-64
2022/11/09 00:36:06;;;;;;;2.60;1.13;;;;;;;;;;5066948;28;20035;-64
2022/11/09 00:38:33;;;;;;;1.37;0.93;;;;;;;;;;5066881;28;20107;-63
2022/11/09 00:41:03;;;;;;;0.70;0.37;;;;;;;;;;5067029;28;20499;-63
2022/11/09 00:43:30;;;;;;;0.60;0.40;;;;;;;;;;5066966;28;20025;-63
2022/11/09 00:45:57;;;;;;;5.00;1.10;;;;;;;;;;5070748;28;20418;-63
2022/11/09 00:48:23;;;;;;;2.57;1.00;;;;;;;;;;5071931;28;20024;-63
2022/11/09 00:50:51;;;;;;;1.60;0.60;;;;;;;;;;5071156;28;20055;-64
2022/11/09 00:53:18;;;;;;;0.00;0.00;;;;;;;;;;5073359;28;20459;-63
2022/11/09 00:56:02;;;;;;;0.10;0.10;;;;;;;;;;5076104;28;20369;-64
2022/11/09 00:58:30;;;;;;;0.17;0.05;;;;;;;;;;5067858;28;20467;-62
2022/11/09 01:00:57;;;;;;;2.37;0.70;;;;;;;;;;5069812;28;20420;-63
2022/11/09 01:03:25;;;;;;;1.27;0.67;;;;;;;;;;5070405;28;20514;-62
2022/11/09 01:05:52;;;;;;;1.00;0.87;;;;;;;;;;5069371;28;20024;-63
2022/11/09 01:08:19;;;;;;;1.73;1.30;;;;;;;;;;5074045;28;20111;-63
2022/11/09 01:10:47;;;;;;;1.90;1.17;;;;;;;;;;5075691;28;20025;-63
2022/11/09 01:13:14;;;;;;;4.23;1.97;;;;;;;;;;5075786;28;20103;-63
2022/11/09 01:15:50;;;;;;;4.33;2.10;;;;;;;;;;5075028;28;20025;-64
2022/11/09 01:18:17;;;;;;;3.07;1.30;;;;;;;;;;5072073;28;20024;-64
2022/11/09 01:20:46;;;;;;;3.03;1.07;;;;;;;;;;5068553;28;20021;-63
2022/11/09 01:23:14;;;;;;;0.37;0.30;;;;;;;;;;5060633;28;20020;-64
2022/11/09 01:25:41;;;;;;;2.07;0.93;;;;;;;;;;5062633;28;20050;-64
2022/11/09 01:28:08;;;;;;;0.20;0.10;;;;;;;;;;5068492;28;20058;-63
2022/11/09 01:30:36;;;;;;;0.00;0.00;;;;;;;;;;5071685;28;20039;-63
2022/11/09 01:33:06;;;;;;;0.40;0.20;;;;;;;;;;5053327;28;20041;-63
2022/11/09 01:35:33;;;;;;;0.17;0.10;;;;;;;;;;5054237;28;20426;-63
2022/11/09 01:38:00;;;;;;;0.73;0.23;;;;;;;;;;5055218;28;20677;-63
2022/11/09 01:40:27;;;;;;;0.77;0.50;;;;;;;;;;5055301;28;20044;-63
2022/11/09 01:42:54;;;;;;;1.67;0.30;;;;;;;;;;5051920;28;20106;-63
2022/11/09 01:45:22;;;;;;;2.43;0.87;;;;;;;;;;5069909;28;20027;-63
2022/11/09 01:47:52;;;;;;;1.73;0.53;;;;;;;;;;5069870;28;20028;-63
2022/11/09 01:50:28;;;;;;;0.83;0.40;;;;;;;;;;5069332;28;20471;-63
2022/11/09 01:52:56;;;;;;;2.63;0.67;;;;;;;;;;5073878;28;20024;-64
2022/11/09 01:55:23;;;;;;;1.40;0.47;;;;;;;;;;5074953;28;20027;-63
2022/11/09 01:57:50;;;;;;;0.43;0.30;;;;;;;;;;5074834;28;20056;-63
2022/11/09 02:00:17;;;;;;;0.30;0.30;;;;;;;;;;5074962;28;20054;-63
2022/11/09 02:02:47;;;;;;;0.63;0.43;;;;;;;;;;5074239;28;20043;-63
2022/11/09 02:05:15;;;;;;;0.30;0.20;;;;;;;;;;5068735;28;20052;-63
2022/11/09 02:07:42;;;;;;;0.13;0.13;;;;;;;;;;5069369;28;20035;-63
2022/11/09 02:10:14;;;;;;;0.30;0.30;;;;;;;;;;5069094;28;20037;-63
2022/11/09 02:12:41;;;;;;;1.43;0.33;;;;;;;;;;5069235;28;20025;-62
2022/11/09 02:15:09;;;;;;;0.00;0.00;;;;;;;;;;5073360;28;20045;-63
2022/11/09 02:17:36;;;;;;;1.13;0.50;;;;;;;;;;5074138;28;20025;-63
2022/11/09 02:20:13;;;;;;;0.10;0.10;;;;;;;;;;5067460;28;20052;-63
2022/11/09 02:22:40;;;;;;;2.83;0.67;;;;;;;;;;5054501;28;20029;-63
2022/11/09 02:25:08;;;;;;;0.57;0.20;;;;;;;;;;5054289;28;20021;-63
2022/11/09 02:27:35;;;;;;;4.67;1.03;;;;;;;;;;5049385;28;20368;-63
2022/11/09 02:30:02;;;;;;;1.00;0.57;;;;;;;;;;5048812;28;20116;-63
2022/11/09 02:32:29;;;;;;;2.77;0.50;;;;;;;;;;5048715;28;20037;-63
2022/11/09 02:34:56;;;;;;;1.90;0.50;;;;;;;;;;5049002;28;20580;-63
2022/11/09 02:37:31;;;;;;;0.47;0.43;;;;;;;;;;5052694;28;20029;-63
2022/11/09 02:39:58;;;;;;;1.55;0.47;;;;;;;;;;5054247;28;20056;-63
2022/11/09 02:42:25;;;;;;;0.93;0.53;;;;;;;;;;5054182;28;20455;-63
2022/11/09 02:44:55;;;;;;;11.87;0.97;;;;;;;;;;5053878;28;20056;-63
2022/11/09 02:47:21;;;;;;;0.83;0.53;;;;;;;;;;5053970;28;20045;-63
2022/11/09 02:49:49;;;;;;;0.33;0.33;;;;;;;;;;5049110;28;20703;-63
2022/11/09 02:52:36;;;;;;;0.30;0.10;;;;;;;;;;5048573;28;20024;-62
2022/11/09 02:55:03;;;;;;;0.40;0.30;;;;;;;;;;5048576;28;20021;-62
2022/11/09 02:57:30;;;;;;;0.40;0.27;;;;;;;;;;5048068;28;20108;-62
2022/11/09 02:59:56;;;;;;;0.50;0.27;;;;;;;;;;5052970;28;20050;-62
2022/11/09 03:02:23;;;;;;;0.10;0.10;;;;;;;;;;5053585;28;20025;-63
2022/11/09 03:04:50;;;;;;;0.53;0.30;;;;;;;;;;5053635;28;20056;-62
2022/11/09 03:07:16;;;;;;;0.33;0.33;;;;;;;;;;5068532;28;20082;-62
2022/11/09 03:09:44;;;;;;;0.30;0.20;;;;;;;;;;5073193;28;20043;-62
2022/11/09 03:12:30;;;;;;;0.63;0.37;;;;;;;;;;5067757;28;20094;-63
2022/11/09 03:14:57;;;;;;;0.15;0.08;;;;;;;;;;5048295;28;20060;-62
2022/11/09 03:17:24;;;;;;;0.20;0.20;;;;;;;;;;5055491;28;20021;-62
2022/11/09 03:19:51;;;;;;;1.30;0.50;;;;;;;;;;5059254;28;20013;-62
2022/11/09 03:22:17;;;;;;;0.50;0.30;;;;;;;;;;5072001;28;20024;-62
2022/11/09 03:24:44;;;;;;;3.90;0.47;;;;;;;;;;5073275;28;20031;-63
2022/11/09 03:27:11;;;;;;;2.77;0.27;;;;;;;;;;5072892;28;20130;-62
2022/11/09 03:29:38;;;;;;;0.40;0.30;;;;;;;;;;5072297;28;20094;-63
2022/11/09 03:32:05;;;;;;;2.13;0.60;;;;;;;;;;5073033;28;20123;-62
2022/11/09 03:34:32;;;;;;;0.00;0.00;;;;;;;;;;5067355;28;20035;-62
2022/11/09 03:36:58;;;;;;;1.57;0.53;;;;;;;;;;5067816;28;20463;-62
2022/11/09 03:39:25;;;;;;;0.27;0.20;;;;;;;;;;5067467;28;20021;-62
2022/11/09 03:41:52;;;;;;;1.13;0.60;;;;;;;;;;5067206;28;20063;-63
2022/11/09 03:44:19;;;;;;;0.20;0.20;;;;;;;;;;5071591;28;20029;-62
2022/11/09 03:46:46;;;;;;;0.57;0.30;;;;;;;;;;5072792;28;20024;-62
2022/11/09 03:49:13;;;;;;;1.97;0.67;;;;;;;;;;5071964;28;20112;-62
2022/11/09 03:51:39;;;;;;;1.00;0.43;;;;;;;;;;5071644;28;20028;-62
2022/11/09 03:54:06;;;;;;;0.10;0.10;;;;;;;;;;5072029;28;20029;-62
2022/11/09 03:56:33;;;;;;;0.20;0.20;;;;;;;;;;5067344;28;20016;-63
2022/11/09 03:58:59;;;;;;;0.57;0.30;;;;;;;;;;5067084;28;20081;-62
2022/11/09 04:01:26;;;;;;;0.17;0.17;;;;;;;;;;5067228;28;20507;-63
2022/11/09 04:03:53;;;;;;;0.10;0.10;;;;;;;;;;5067129;28;20848;-62
2022/11/09 04:06:19;;;;;;;1.90;0.37;;;;;;;;;;5070320;28;20107;-63
2022/11/09 04:08:46;;;;;;;0.20;0.20;;;;;;;;;;5069565;28;20036;-62
2022/11/09 04:11:13;;;;;;;0.10;0.10;;;;;;;;;;5072534;28;20501;-62
2022/11/09 04:13:39;;;;;;;1.90;0.57;;;;;;;;;;5072497;28;20020;-62
2022/11/09 04:16:06;;;;;;;0.07;0.07;;;;;;;;;;5071895;28;20032;-62
2022/11/09 04:18:33;;;;;;;0.20;0.17;;;;;;;;;;5068404;28;20021;-62
2022/11/09 04:20:59;;;;;;;0.30;0.20;;;;;;;;;;5066764;28;20036;-62
2022/11/09 04:23:26;;;;;;;0.10;0.10;;;;;;;;;;5066877;28;20520;-62
2022/11/09 04:25:53;;;;;;;0.30;0.27;;;;;;;;;;5066638;28;20024;-62
2022/11/09 04:28:19;;;;;;;0.00;0.00;;;;;;;;;;5069443;28;20028;-62
2022/11/09 04:30:46;;;;;;;0.67;0.33;;;;;;;;;;5072092;28;20067;-62
2022/11/09 04:33:13;;;;;;;0.67;0.40;;;;;;;;;;5071907;28;20401;-62
2022/11/09 04:35:39;;;;;;;0.20;0.20;;;;;;;;;;5071586;28;20032;-62
2022/11/09 04:38:07;;;;;;;0.57;0.40;;;;;;;;;;5072009;28;20024;-62
2022/11/09 04:40:35;;;;;;;1.00;0.30;;;;;;;;;;5068496;28;20135;-63
2022/11/09 04:43:03;;;;;;;0.30;0.20;;;;;;;;;;5066657;28;20035;-63
2022/11/09 04:45:29;;;;;;;0.20;0.20;;;;;;;;;;5066553;28;20017;-63
2022/11/09 04:48:04;;;;;;;0.83;0.40;;;;;;;;;;5066470;28;20032;-63
2022/11/09 04:50:30;;;;;;;0.20;0.20;;;;;;;;;;5069817;28;20514;-63
2022/11/09 04:53:07;;;;;;;0.40;0.20;;;;;;;;;;5072007;28;20074;-63
2022/11/09 04:55:34;;;;;;;0.30;0.20;;;;;;;;;;5072382;28;20395;-63
2022/11/09 04:58:00;;;;;;;1.80;0.47;;;;;;;;;;5072041;28;20025;-63
2022/11/09 05:00:27;;;;;;;0.97;0.30;;;;;;;;;;5071377;28;20039;-63
2022/11/09 05:02:53;;;;;;;0.10;0.10;;;;;;;;;;5067927;28;20028;-62
2022/11/09 05:05:20;;;;;;;1.50;0.40;;;;;;;;;;5066598;28;20422;-63
2022/11/09 05:07:47;;;;;;;1.53;0.60;;;;;;;;;;5066529;28;20383;-63
2022/11/09 05:10:14;;;;;;;0.90;0.37;;;;;;;;;;5065654;28;20048;-62
2022/11/09 05:12:40;;;;;;;0.87;0.53;;;;;;;;;;5062373;28;20475;-61
2022/11/09 05:15:07;;;;;;;0.60;0.33;;;;;;;;;;5064519;28;20036;-61
2022/11/09 05:17:34;;;;;;;0.87;0.40;;;;;;;;;;5071461;28;20021;-62
2022/11/09 05:20:00;;;;;;;0.30;0.30;;;;;;;;;;5062379;28;20025;-61
2022/11/09 05:25:12;;;;;;;4.85;0.68;;;;;;;;;;5048323;28;20043;-61
2022/11/09 05:27:39;;;;;;;0.10;0.10;;;;;;;;;;5028553;28;20021;-63
2022/11/09 05:30:07;;;;;;;0.33;0.30;;;;;;;;;;5066340;28;20120;-63
2022/11/09 05:32:35;;;;;;;0.10;0.10;;;;;;;;;;5060334;28;20029;-61
2022/11/09 05:35:02;;;;;;;0.40;0.30;;;;;;;;;;5069056;28;20032;-61
2022/11/09 05:37:28;;;;;;;0.50;0.37;;;;;;;;;;5071907;28;20044;-61
2022/11/09 05:39:55;;;;;;;0.20;0.20;;;;;;;;;;5074010;28;20017;-61
2022/11/09 05:42:24;;;;;;;0.53;0.20;;;;;;;;;;5075151;28;20070;-61
2022/11/09 05:44:50;;;;;;;0.83;0.50;;;;;;;;;;5074888;28;20732;-61
2022/11/09 05:47:19;;;;;;;0.63;0.50;;;;;;;;;;5071351;28;20126;-62
2022/11/09 05:49:45;;;;;;;1.10;0.50;;;;;;;;;;5069842;28;20054;-61
2022/11/09 05:52:12;;;;;;;1.13;0.73;;;;;;;;;;5068966;28;20028;-61
2022/11/09 05:54:38;;;;;;;0.77;0.40;;;;;;;;;;5069692;28;20066;-61
2022/11/09 05:57:05;;;;;;;1.10;0.50;;;;;;;;;;5072223;28;20044;-61
2022/11/09 05:59:32;;;;;;;0.80;0.50;;;;;;;;;;5074647;28;20082;-62
2022/11/09 06:01:58;;;;;;;1.03;0.30;;;;;;;;;;5074732;28;20039;-61
2022/11/09 06:04:25;;;;;;;0.63;0.50;;;;;;;;;;5074365;28;20036;-61
2022/11/09 06:06:52;;;;;;;1.30;0.87;;;;;;;;;;5074745;28;20024;-61
2022/11/09 06:09:18;;;;;;;0.57;0.30;;;;;;;;;;5071759;28;20033;-61
2022/11/09 06:11:45;;;;;;;0.20;0.20;;;;;;;;;;5069263;28;20466;-61
2022/11/09 06:14:12;;;;;;;5.43;1.03;;;;;;;;;;5069261;28;20506;-61
2022/11/09 06:16:38;;;;;;;0.10;0.10;;;;;;;;;;5069400;28;20108;-62
2022/11/09 06:19:05;;;;;;;0.50;0.30;;;;;;;;;;5071613;28;20033;-61
2022/11/09 06:21:32;;;;;;;0.40;0.30;;;;;;;;;;5074347;28;20021;-61
2022/11/09 06:23:58;;;;;;;1.00;0.63;;;;;;;;;;5074491;28;20154;-61
2022/11/09 06:26:25;;;;;;;0.30;0.20;;;;;;;;;;5074272;28;20503;-61
2022/11/09 06:28:52;;;;;;;0.97;0.60;;;;;;;;;;5074175;28;20037;-61
2022/11/09 06:31:19;;;;;;;1.23;0.60;;;;;;;;;;5071818;28;20085;-61
2022/11/09 06:33:46;;;;;;;0.30;0.23;;;;;;;;;;5068429;28;20444;-61
2022/11/09 06:36:12;;;;;;;2.03;0.83;;;;;;;;;;5068112;28;20036;-61
2022/11/09 06:38:39;;;;;;;0.33;0.33;;;;;;;;;;5068886;28;20467;-61
2022/11/09 06:41:06;;;;;;;1.60;0.60;;;;;;;;;;5070570;28;20417;-61
2022/11/09 06:43:33;;;;;;;0.23;0.20;;;;;;;;;;5073761;28;20021;-61
2022/11/09 06:46:02;;;;;;;0.37;0.30;;;;;;;;;;5074001;28;20027;-61
2022/11/09 06:48:29;;;;;;;0.10;0.10;;;;;;;;;;5073741;28;20032;-61
2022/11/09 06:50:59;;;;;;;0.10;0.10;;;;;;;;;;5073173;28;20103;-61
2022/11/09 06:53:28;;;;;;;0.10;0.10;;;;;;;;;;5071902;28;20061;-61
2022/11/09 06:55:57;;;;;;;0.00;0.00;;;;;;;;;;5068163;28;20040;-61
2022/11/09 06:58:24;;;;;;;0.97;0.60;;;;;;;;;;5068431;28;20025;-61
2022/11/09 07:00:51;;;;;;;0.53;0.33;;;;;;;;;;5068199;28;20028;-62
2022/11/09 07:03:19;;;;;;;0.00;0.00;;;;;;;;;;5069621;28;20095;-61
2022/11/09 07:05:46;;;;;;;0.37;0.30;;;;;;;;;;5073640;28;20016;-61
2022/11/09 07:08:13;;;;;;;1.13;0.63;;;;;;;;;;5073194;28;20383;-61
2022/11/09 07:10:39;;;;;;;0.70;0.37;;;;;;;;;;5073407;28;20039;-61
2022/11/09 07:13:06;;;;;;;1.17;0.60;;;;;;;;;;5073553;28;20028;-61
2022/11/09 07:15:34;;;;;;;0.73;0.60;;;;;;;;;;5071783;28;20031;-62
2022/11/09 07:18:01;;;;;;;0.50;0.40;;;;;;;;;;5067774;28;20021;-61
2022/11/09 07:20:28;;;;;;;0.20;0.10;;;;;;;;;;5067704;28;20028;-61
2022/11/09 07:22:55;;;;;;;1.60;0.67;;;;;;;;;;5067173;28;20039;-61
2022/11/09 07:25:21;;;;;;;0.43;0.43;;;;;;;;;;5068725;28;20017;-61
2022/11/09 07:27:48;;;;;;;0.57;0.37;;;;;;;;;;5073202;28;20495;-61
2022/11/09 07:30:15;;;;;;;0.87;0.53;;;;;;;;;;5072547;28;20036;-61
2022/11/09 07:32:42;;;;;;;0.10;0.10;;;;;;;;;;5073082;28;20100;-61
2022/11/09 07:35:09;;;;;;;0.20;0.20;;;;;;;;;;5072937;28;20463;-61
2022/11/09 07:37:36;;;;;;;0.57;0.40;;;;;;;;;;5071865;28;20391;-61
2022/11/09 07:40:03;;;;;;;0.90;0.60;;;;;;;;;;5067424;28;20301;-62
2022/11/09 07:42:31;;;;;;;1.37;0.43;;;;;;;;;;5067192;28;20040;-61
2022/11/09 07:44:57;;;;;;;1.17;0.47;;;;;;;;;;5067510;28;20104;-61
2022/11/09 07:47:24;;;;;;;3.73;1.10;;;;;;;;;;5067566;28;20023;-61
2022/11/09 07:49:51;;;;;;;0.20;0.20;;;;;;;;;;5072678;28;20033;-61
2022/11/09 07:52:17;;;;;;;0.27;0.23;;;;;;;;;;5072412;28;20103;-61
2022/11/09 07:54:44;;;;;;;0.37;0.27;;;;;;;;;;5072665;28;20076;-61
2022/11/09 07:57:11;;;;;;;0.33;0.33;;;;;;;;;;5072205;28;20216;-61
2022/11/09 07:59:38;;;;;;;0.57;0.27;;;;;;;;;;5072229;28;20563;-61
2022/11/09 08:02:05;;;;;;;0.60;0.40;;;;;;;;;;5066617;28;20308;-61
2022/11/09 08:04:31;;;;;;;1.13;0.77;;;;;;;;;;5066933;28;20029;-62
2022/11/09 08:06:58;;;;;;;0.67;0.43;;;;;;;;;;5067347;28;20697;-61
2022/11/09 08:09:25;;;;;;;0.37;0.23;;;;;;;;;;5066755;28;20129;-61
2022/11/09 08:11:51;;;;;;;0.50;0.50;;;;;;;;;;5071624;28;20028;-61
2022/11/09 08:14:18;;;;;;;0.77;0.60;;;;;;;;;;5072338;28;20111;-61
2022/11/09 08:16:44;;;;;;;1.83;0.60;;;;;;;;;;5072361;28;20028;-62
2022/11/09 08:19:11;;;;;;;1.23;0.60;;;;;;;;;;5072316;28;20427;-61
2022/11/09 08:21:38;;;;;;;0.10;0.10;;;;;;;;;;5072466;28;20020;-61
2022/11/09 08:24:05;;;;;;;0.73;0.53;;;;;;;;;;5067079;28;20021;-61
2022/11/09 08:26:32;;;;;;;0.57;0.37;;;;;;;;;;5066391;28;20541;-61
2022/11/09 08:28:58;;;;;;;0.50;0.33;;;;;;;;;;5066263;28;20032;-61
2022/11/09 08:31:25;;;;;;;2.67;1.17;;;;;;;;;;5066787;28;20066;-61
2022/11/09 08:33:51;;;;;;;0.10;0.10;;;;;;;;;;5071292;28;20032;-61
2022/11/09 08:36:18;;;;;;;0.27;0.13;;;;;;;;;;5072317;28;20034;-61
2022/11/09 08:38:45;;;;;;;2.97;0.57;;;;;;;;;;5072017;28;20368;-61
2022/11/09 08:41:12;;;;;;;0.63;0.47;;;;;;;;;;5071721;28;20115;-61
2022/11/09 08:43:39;;;;;;;0.40;0.20;;;;;;;;;;5071768;28;20036;-61
2022/11/09 08:46:05;;;;;;;2.10;0.67;;;;;;;;;;5066873;28;20112;-61
2022/11/09 08:48:32;;;;;;;1.73;0.87;;;;;;;;;;5066842;28;20035;-60
2022/11/09 08:50:59;;;;;;;1.23;0.33;;;;;;;;;;5066574;28;20029;-62
2022/11/09 08:53:27;;;;;;;0.77;0.50;;;;;;;;;;5066385;28;20458;-61
2022/11/09 08:55:53;;;;;;;0.93;0.57;;;;;;;;;;5070553;28;20112;-61
2022/11/09 08:58:21;;;;;;;1.90;0.63;;;;;;;;;;5071988;28;20021;-61
2022/11/09 09:00:47;;;;;;;0.70;0.50;;;;;;;;;;5071765;28;20036;-61
2022/11/09 09:03:14;;;;;;;0.40;0.30;;;;;;;;;;5071775;28;20444;-61
2022/11/09 09:05:40;;;;;;;0.30;0.17;;;;;;;;;;5071857;28;20438;-61
2022/11/09 09:08:09;;;;;;;0.73;0.67;;;;;;;;;;5067426;28;20024;-61
2022/11/09 09:10:36;;;;;;;1.43;0.83;;;;;;;;;;5066515;28;20487;-62
2022/11/09 09:13:03;;;;;;;1.00;0.57;;;;;;;;;;5066080;28;20028;-61
2022/11/09 09:15:30;;;;;;;0.20;0.20;;;;;;;;;;5069971;28;20068;-61
2022/11/09 09:17:59;;;;;;;0.83;0.67;;;;;;;;;;5073195;28;20020;-61
2022/11/09 09:20:26;;;;;;;1.47;0.93;;;;;;;;;;5075425;28;20503;-61
2022/11/09 09:22:52;;;;;;;0.40;0.40;;;;;;;;;;5075677;28;20055;-61
2022/11/09 09:25:19;;;;;;;0.40;0.30;;;;;;;;;;5075589;28;20021;-61
2022/11/09 09:27:45;;;;;;;2.30;0.90;;;;;;;;;;5075273;28;20028;-62
2022/11/09 09:30:13;;;;;;;0.70;0.60;;;;;;;;;;5071633;28;20107;-61
2022/11/09 09:32:39;;;;;;;0.30;0.30;;;;;;;;;;5070126;28;20044;-61
2022/11/09 09:35:06;;;;;;;0.47;0.40;;;;;;;;;;5069146;28;20116;-61
2022/11/09 09:37:32;;;;;;;0.30;0.30;;;;;;;;;;5070067;28;20351;-61
2022/11/09 09:39:59;;;;;;;0.60;0.40;;;;;;;;;;5072853;28;20024;-61
2022/11/09 09:42:35;;;;;;;1.00;0.73;;;;;;;;;;5075221;28;20017;-61
2022/11/09 09:45:04;;;;;;;2.67;1.00;;;;;;;;;;5074816;28;20062;-61
2022/11/09 09:47:36;;;;;;;3.97;0.80;;;;;;;;;;5074541;28;20092;-61
2022/11/09 09:50:05;;;;;;;0.70;0.70;;;;;;;;;;5074483;28;20032;-61
2022/11/09 09:52:44;;;;;;;0.43;0.30;;;;;;;;;;5071231;28;20032;-61
2022/11/09 09:55:14;;;;;;;0.23;0.23;;;;;;;;;;5069705;28;20034;-61
2022/11/09 09:57:43;;;;;;;1.20;0.60;;;;;;;;;;5069644;28;20375;-61
2022/11/09 10:00:15;;;;;;;1.50;0.77;;;;;;;;;;5069371;28;20024;-60
2022/11/09 10:02:43;;;;;;;0.50;0.47;;;;;;;;;;5073017;28;20432;-61
2022/11/09 10:05:10;;;;;;;0.37;0.37;;;;;;;;;;5074694;28;20151;-61
2022/11/09 10:07:45;;;;;;;0.40;0.30;;;;;;;;;;5074747;28;20028;-61
2022/11/09 10:10:12;;;;;;;0.90;0.55;;;;;;;;;;5074283;28;20149;-61
2022/11/09 10:13:07;;;;;;;0.80;0.60;;;;;;;;;;5074230;28;20033;-61
2022/11/09 10:15:54;;;;;;;0.30;0.30;;;;;;;;;;5048114;28;20040;-61
2022/11/09 10:18:31;;;;;;;0.70;0.60;;;;;;;;;;5068437;28;20033;-61
2022/11/09 10:21:10;;;;;;;1.20;0.87;;;;;;;;;;5069266;28;20025;-61
2022/11/09 10:23:57;;;;;;;0.50;0.50;;;;;;;;;;5069818;28;20036;-61
2022/11/09 10:26:29;;;;;;;0.60;0.50;;;;;;;;;;5073315;28;20029;-61
2022/11/09 10:28:59;;;;;;;1.77;0.50;;;;;;;;;;5074584;28;20087;-61
2022/11/09 10:31:30;;;;;;;2.70;0.80;;;;;;;;;;5073979;28;20056;-61
2022/11/09 10:33:59;;;;;;;1.37;1.03;;;;;;;;;;5074280;28;20020;-62
2022/11/09 10:36:37;;;;;;;0.87;0.70;;;;;;;;;;5071692;28;20031;-61
2022/11/09 10:39:03;;;;;;;0.97;0.70;;;;;;;;;;5068998;28;20020;-61
2022/11/09 10:41:33;;;;;;;1.07;0.77;;;;;;;;;;5068643;28;20472;-61
2022/11/09 10:43:59;;;;;;;0.97;0.70;;;;;;;;;;5068793;28;20032;-61
2022/11/09 10:46:26;;;;;;;0.47;0.47;;;;;;;;;;5069714;28;20123;-63
2022/11/09 10:48:54;;;;;;;1.20;1.00;;;;;;;;;;5059071;28;20068;-61
2022/11/09 10:51:39;;;;;;;0.43;0.40;;;;;;;;;;5073490;28;20032;-61
2022/11/09 10:54:18;;;;;;;0.77;0.60;;;;;;;;;;5074028;28;20048;-61
2022/11/09 10:56:47;;;;;;;1.23;0.83;;;;;;;;;;5055959;28;20403;-61
2022/11/09 10:59:32;;;;;;;0.70;0.70;;;;;;;;;;5062763;28;20464;-62
2022/11/09 11:01:58;;;;;;;0.80;0.60;;;;;;;;;;5048530;28;20379;-61
2022/11/09 11:04:27;;;;;;;0.50;0.47;;;;;;;;;;5049171;28;20186;-61
2022/11/09 11:06:54;;;;;;;1.37;0.90;;;;;;;;;;5048276;28;20052;-61
2022/11/09 11:09:22;;;;;;;0.60;0.50;;;;;;;;;;5051600;28;20480;-61
2022/11/09 11:11:49;;;;;;;1.20;0.93;;;;;;;;;;5053174;28;20017;-61
2022/11/09 11:14:20;;;;;;;1.67;1.13;;;;;;;;;;5054640;28;20021;-61
2022/11/09 11:16:47;;;;;;;1.13;1.00;;;;;;;;;;5053393;28;20108;-61
2022/11/09 11:19:32;;;;;;;1.63;1.17;;;;;;;;;;5054525;28;20033;-61
2022/11/09 11:22:10;;;;;;;1.20;0.98;;;;;;;;;;5048664;28;20056;-61
2022/11/09 11:24:45;;;;;;;1.43;1.23;;;;;;;;;;5048025;28;20061;-61
2022/11/09 11:27:18;;;;;;;1.13;0.93;;;;;;;;;;5048258;28;20029;-61
2022/11/09 11:29:49;;;;;;;0.70;0.70;;;;;;;;;;5058231;28;20036;-61
2022/11/09 11:32:16;;;;;;;1.70;1.03;;;;;;;;;;5072586;28;20031;-61
2022/11/09 11:34:43;;;;;;;1.87;1.00;;;;;;;;;;5072762;28;20103;-61
2022/11/09 11:37:29;;;;;;;3.23;1.43;;;;;;;;;;5072924;28;20029;-61
2022/11/09 11:39:55;;;;;;;;;;;;;;;;;;5073333;28;20017;-61
2022/11/09 11:42:24;;;;;;;1.37;1.10;;;;;;;;;;5058649;28;19909;-61
2022/11/09 11:45:11;;;;;;;2.97;1.07;;;;;;;;;;5047257;28;20056;-61
2022/11/09 11:47:53;;;;;;;1.20;1.10;;;;;;;;;;5047419;28;20033;-62
2022/11/09 11:50:31;;;;;;;0.63;0.60;;;;;;;;;;5047259;28;20039;-61
2022/11/09 11:53:03;;;;;;;0.70;0.67;;;;;;;;;;5048718;28;20424;-61
2022/11/09 11:55:29;;;;;;;1.00;0.80;;;;;;;;;;5058024;28;20113;-61
2022/11/09 11:57:56;;;;;;;1.33;0.90;;;;;;;;;;5072503;28;20075;-61
2022/11/09 12:00:22;;;;;;;4.33;1.20;;;;;;;;;;5072710;28;20039;-61
2022/11/09 12:03:07;;;;;;;0.93;0.70;;;;;;;;;;5072724;28;20127;-61
2022/11/09 12:05:43;;;;;;;1.93;1.23;;;;;;;;;;5069989;28;20088;-61
2022/11/09 12:08:09;;;;;;;1.13;0.90;;;;;;;;;;5067110;28;20032;-61
2022/11/09 12:10:51;;;;;;;1.20;0.77;;;;;;;;;;5057352;28;20033;-60
2022/11/09 12:13:38;;;;;;;0.63;0.63;;;;;;;;;;5047003;28;20029;-60
2022/11/09 12:16:06;;;;;;;0.67;0.63;;;;;;;;;;5050366;28;20025;-61
2022/11/09 12:18:33;;;;;;;1.07;0.73;;;;;;;;;;5052308;28;20025;-61
2022/11/09 12:21:21;;;;;;;1.60;1.20;;;;;;;;;;5052331;28;20028;-61
2022/11/09 12:23:47;;;;;;;1.23;1.00;;;;;;;;;;5052334;28;20021;-61
2022/11/09 12:26:32;;;;;;;1.13;1.03;;;;;;;;;;5069928;28;20104;-61
2022/11/09 12:29:17;;;;;;;1.20;1.10;;;;;;;;;;5066959;28;20043;-61
2022/11/09 12:31:49;;;;;;;1.50;0.88;;;;;;;;;;5067100;28;20025;-61
2022/11/09 12:34:16;;;;;;;0.90;0.80;;;;;;;;;;5066960;28;20048;-61
2022/11/09 12:36:48;;;;;;;1.23;1.10;;;;;;;;;;5066965;28;20025;-61
2022/11/09 12:39:26;;;;;;;0.60;0.60;;;;;;;;;;5062716;28;20031;-61
2022/11/09 12:41:55;;;;;;;0.83;0.73;;;;;;;;;;5051934;28;20021;-61
2022/11/09 12:44:24;;;;;;;0.83;0.77;;;;;;;;;;5052314;28;20029;-61
2022/11/09 12:46:55;;;;;;;2.83;0.77;;;;;;;;;;5051878;28;20021;-61
2022/11/09 12:49:41;;;;;;;0.60;0.60;;;;;;;;;;5052728;28;20057;-62
2022/11/09 12:52:11;;;;;;;1.47;0.80;;;;;;;;;;5050336;28;20387;-62
2022/11/09 12:54:40;;;;;;;1.33;0.97;;;;;;;;;;5070517;28;20021;-61
2022/11/09 12:57:09;;;;;;;1.30;1.07;;;;;;;;;;5070588;28;20033;-61
2022/11/09 12:59:45;;;;;;;0.73;0.60;;;;;;;;;;5071859;28;20055;-61
2022/11/09 13:02:31;;;;;;;1.37;1.00;;;;;;;;;;5076230;28;20111;-61
2022/11/09 13:04:57;;;;;;;;;;;;;;;;;;5076388;28;20028;-61
2022/11/09 13:07:30;;;;;;;1.10;0.73;;;;;;;;;;5070416;28;19923;-61
2022/11/09 13:09:58;;;;;;;0.70;0.67;;;;;;;;;;5055824;28;20487;-61
2022/11/09 13:12:43;;;;;;;1.47;1.07;;;;;;;;;;5052893;28;20078;-61
2022/11/09 13:15:28;;;;;;;0.70;0.43;;;;;;;;;;5050381;28;20028;-61
2022/11/09 13:17:54;;;;;;;;;;;;;;;;;;5050909;28;20029;-61
2022/11/09 13:20:36;;;;;;;0.53;0.50;;;;;;;;;;5050381;28;19987;-61
2022/11/09 13:23:06;;;;;;;1.30;0.97;;;;;;;;;;5062366;28;20036;-61
2022/11/09 13:25:43;;;;;;;1.10;0.90;;;;;;;;;;5055495;28;20021;-61
2022/11/09 13:28:27;;;;;;;1.17;0.83;;;;;;;;;;5056634;28;20039;-61
2022/11/09 13:30:59;;;;;;;1.17;0.70;;;;;;;;;;5074188;28;20469;-61
2022/11/09 13:33:26;;;;;;;1.93;1.30;;;;;;;;;;5074913;28;20364;-61
2022/11/09 13:35:54;;;;;;;1.90;0.90;;;;;;;;;;5069930;28;20024;-61
2022/11/09 13:38:25;;;;;;;1.27;1.00;;;;;;;;;;5069988;28;20025;-61
2022/11/09 13:40:51;;;;;;;0.90;0.70;;;;;;;;;;5069986;28;20083;-61
2022/11/09 13:43:18;;;;;;;1.20;0.80;;;;;;;;;;5069145;28;20573;-61
2022/11/09 13:45:48;;;;;;;4.13;1.57;;;;;;;;;;5074692;28;20028;-61
2022/11/09 13:48:33;;;;;;;1.27;1.10;;;;;;;;;;5075085;28;20050;-61
2022/11/09 13:51:04;;;;;;;1.80;1.17;;;;;;;;;;5074856;28;20345;-61
2022/11/09 13:53:53;;;;;;;1.17;0.90;;;;;;;;;;5074624;28;20023;-61
2022/11/09 13:56:23;;;;;;;0.83;0.77;;;;;;;;;;5060190;28;20100;-61
2022/11/09 13:58:50;;;;;;;1.23;0.90;;;;;;;;;;5069422;28;20155;-62
2022/11/09 14:01:25;;;;;;;1.23;0.87;;;;;;;;;;5069654;28;20551;-61
2022/11/09 14:03:52;;;;;;;1.87;1.17;;;;;;;;;;5069518;28;20033;-61
2022/11/09 14:06:19;;;;;;;1.23;0.93;;;;;;;;;;5070610;28;20024;-61
2022/11/09 14:08:46;;;;;;;0.70;0.70;;;;;;;;;;5075066;28;20045;-61
2022/11/09 14:11:19;;;;;;;1.13;0.90;;;;;;;;;;5074251;28;20033;-61
2022/11/09 14:13:46;;;;;;;0.77;0.60;;;;;;;;;;5074667;28;20054;-61
2022/11/09 14:16:26;;;;;;;0.90;0.70;;;;;;;;;;5074247;28;20133;-62
2022/11/09 14:19:03;;;;;;;0.50;0.40;;;;;;;;;;5072221;28;20031;-62
2022/11/09 14:21:47;;;;;;;0.47;0.40;;;;;;;;;;5069390;28;20515;-61
2022/11/09 14:24:13;;;;;;;1.13;0.80;;;;;;;;;;5068898;28;20025;-61
2022/11/09 14:26:40;;;;;;;0.63;0.60;;;;;;;;;;5069238;28;20051;-61
2022/11/09 14:29:23;;;;;;;1.27;0.57;;;;;;;;;;5071335;28;20802;-61
2022/11/09 14:31:49;;;;;;;0.30;0.30;;;;;;;;;;5074301;28;20078;-61
2022/11/09 14:34:17;;;;;;;0.60;0.50;;;;;;;;;;5074282;28;20426;-61
2022/11/09 14:36:44;;;;;;;1.20;0.67;;;;;;;;;;5073512;28;20022;-61
2022/11/09 14:39:28;;;;;;;1.40;1.10;;;;;;;;;;5074440;28;20025;-61
2022/11/09 14:41:55;;;;;;;1.00;0.83;;;;;;;;;;5070090;28;20113;-61
2022/11/09 14:44:31;;;;;;;0.80;0.50;;;;;;;;;;5069037;28;20027;-61
2022/11/09 14:46:57;;;;;;;1.13;0.70;;;;;;;;;;5068795;28;20103;-61
2022/11/09 14:49:25;;;;;;;2.40;0.90;;;;;;;;;;5068267;28;20044;-62
2022/11/09 14:51:52;;;;;;;4.27;1.10;;;;;;;;;;5072420;28;20025;-61
2022/11/09 14:54:21;;;;;;;1.27;1.07;;;;;;;;;;5073931;28;20028;-62
2022/11/09 14:56:47;;;;;;;0.93;0.67;;;;;;;;;;5073916;28;20025;-61
2022/11/09 14:59:16;;;;;;;1.00;0.73;;;;;;;;;;5073449;28;20059;-61